TimeMDT,TemperatureF,Dew PointF,Humidity,Sea Level PressureIn,VisibilityMPH,Wind Direction,Wind SpeedMPH,Gust SpeedMPH,PrecipitationIn,Events,Conditions,WindDirDegrees,DateUTC
12:53 AM,46.9,33.1,59,29.85,10.0,NE,5.8,-,N/A,,Clear,40,2012-10-03 06:53:00
1:53 AM,45.0,32.0,60,29.84,10.0,ENE,6.9,-,N/A,,Clear,60,2012-10-03 07:53:00
2:53 AM,43.0,32.0,65,29.83,10.0,NE,5.8,-,N/A,,Clear,40,2012-10-03 08:53:00
3:53 AM,41.0,32.0,70,29.83,10.0,ENE,8.1,-,N/A,,Clear,60,2012-10-03 09:53:00
4:53 AM,42.1,33.1,70,29.83,10.0,NE,9.2,-,N/A,,Clear,50,2012-10-03 10:53:00
5:53 AM,42.1,33.1,70,29.85,10.0,ENE,8.1,-,N/A,,Clear,60,2012-10-03 11:53:00
6:53 AM,41.0,32.0,70,29.88,10.0,ENE,5.8,-,N/A,,Clear,60,2012-10-03 12:53:00
7:53 AM,43.0,33.1,68,29.91,10.0,ENE,8.1,-,N/A,,Clear,60,2012-10-03 13:53:00
8:53 AM,53.1,33.1,47,29.88,10.0,ENE,6.9,-,N/A,,Clear,60,2012-10-03 14:53:00
9:53 AM,64.9,34.0,32,29.87,10.0,ENE,5.8,-,N/A,,Clear,70,2012-10-03 15:53:00
10:53 AM,73.0,28.9,20,29.83,10.0,South,5.8,-,N/A,,Clear,170,2012-10-03 16:53:00
11:53 AM,78.1,23.0,13,29.80,10.0,SSE,6.9,-,N/A,,Clear,150,2012-10-03 17:53:00
12:53 PM,80.1,23.0,12,29.77,10.0,South,6.9,-,N/A,,Clear,170,2012-10-03 18:53:00
1:53 PM,80.1,21.0,11,29.76,10.0,East,4.6,-,N/A,,Clear,80,2012-10-03 19:53:00
2:53 PM,81.0,19.9,10,29.74,10.0,East,9.2,21.9,N/A,,Clear,100,2012-10-03 20:53:00
3:53 PM,82.9,12.9,7,29.75,10.0,WNW,11.5,-,N/A,,Clear,300,2012-10-03 21:53:00
4:53 PM,82.0,17.1,9,29.76,10.0,NW,9.2,18.4,N/A,,Clear,310,2012-10-03 22:53:00
5:53 PM,80.1,21.9,12,29.77,10.0,NW,5.8,-,N/A,,Clear,310,2012-10-03 23:53:00
6:53 PM,68.0,25.0,20,29.83,10.0,West,4.6,-,N/A,,Clear,270,2012-10-04 00:53:00
7:53 PM,73.0,23.0,15,29.83,10.0,WNW,15.0,23.0,N/A,,Clear,290,2012-10-04 01:53:00
8:53 PM,72.0,23.0,16,29.83,10.0,WNW,15.0,-,N/A,,Clear,290,2012-10-04 02:53:00
9:53 PM,68.0,24.1,19,29.82,10.0,WNW,12.7,-,N/A,,Clear,300,2012-10-04 03:53:00
10:53 PM,62.1,28.0,28,29.90,4.0,NNE,27.6,40.3,N/A,,Haze,30,2012-10-04 04:53:00
11:05 PM,57.2,30.2,36,30.17,6.0,North,26.5,32.2,N/A,,Haze,360,2012-10-04 05:05:00
11:37 PM,53.6,32.0,44,30.19,8.0,NNE,20.7,-,N/A,,Partly Cloudy,20,2012-10-04 05:37:00
11:53 PM,53.1,32.0,45,29.94,9.0,North,26.5,33.4,N/A,,Clear,360,2012-10-04 05:53:00